sensor_id;sensor_type;location;lat;lon;timestamp;pressure;altitude;pressure_sealevel;temperature;humidity
31911;BME280;18457;52.432;16.914;2023-01-10T00:00:29;99630.14;;;6.31;100.00
31911;BME280;18457;52.432;16.914;2023-01-10T00:03:21;99629.46;;;6.28;100.00
31911;BME280;18457;52.432;16.914;2023-01-10T00:05:50;99632.23;;;6.15;100.00
31911;BME280;18457;52.432;16.914;2023-01-10T00:08:18;99637.38;;;6.18;100.00
31911;BME280;18457;52.432;16.914;2023-01-10T00:10:48;99638.38;;;6.13;100.00
31911;BME280;18457;52.432;16.914;2023-01-10T00:13:17;99639.89;;;6.18;100.00
31911;BME280;18457;52.432;16.914;2023-01-10T00:15:52;99645.98;;;6.09;100.00
31911;BME280;18457;52.432;16.914;2023-01-10T00:18:21;99649.16;;;6.11;100.00
31911;BME280;18457;52.432;16.914;2023-01-10T00:20:50;99646.64;;;6.12;100.00
31911;BME280;18457;52.432;16.914;2023-01-10T00:23:18;99650.39;;;6.13;100.00
31911;BME280;18457;52.432;16.914;2023-01-10T00:25:50;99652.48;;;6.15;100.00
31911;BME280;18457;52.432;16.914;2023-01-10T00:28:18;99652.90;;;6.13;100.00
31911;BME280;18457;52.432;16.914;2023-01-10T00:30:49;99650.05;;;6.12;100.00
31911;BME280;18457;52.432;16.914;2023-01-10T00:33:22;99646.83;;;6.12;100.00
31911;BME280;18457;52.432;16.914;2023-01-10T00:35:50;99655.73;;;6.15;100.00
31911;BME280;18457;52.432;16.914;2023-01-10T00:38:19;99657.11;;;6.18;100.00
31911;BME280;18457;52.432;16.914;2023-01-10T00:40:47;99666.75;;;6.11;100.00
31911;BME280;18457;52.432;16.914;2023-01-10T00:43:16;99663.69;;;6.21;100.00
31911;BME280;18457;52.432;16.914;2023-01-10T00:46:02;99667.66;;;6.30;100.00
31911;BME280;18457;52.432;16.914;2023-01-10T00:48:31;99665.11;;;6.32;100.00
31911;BME280;18457;52.432;16.914;2023-01-10T00:51:00;99672.00;;;6.37;100.00
31911;BME280;18457;52.432;16.914;2023-01-10T00:53:28;99676.09;;;6.39;100.00
31911;BME280;18457;52.432;16.914;2023-01-10T00:55:57;99679.63;;;6.32;100.00
31911;BME280;18457;52.432;16.914;2023-01-10T00:58:25;99685.16;;;6.33;100.00
31911;BME280;18457;52.432;16.914;2023-01-10T01:00:54;99691.33;;;6.30;100.00
31911;BME280;18457;52.432;16.914;2023-01-10T01:03:22;99692.54;;;6.33;100.00
31911;BME280;18457;52.432;16.914;2023-01-10T01:05:50;99692.69;;;6.34;100.00
31911;BME280;18457;52.432;16.914;2023-01-10T01:08:19;99695.90;;;6.35;100.00
31911;BME280;18457;52.432;16.914;2023-01-10T01:10:47;99694.96;;;6.37;100.00
31911;BME280;18457;52.432;16.914;2023-01-10T01:13:18;99698.02;;;6.26;100.00
31911;BME280;18457;52.432;16.914;2023-01-10T01:15:48;99696.33;;;6.20;100.00
31911;BME280;18457;52.432;16.914;2023-01-10T01:18:18;99701.86;;;6.22;100.00
31911;BME280;18457;52.432;16.914;2023-01-10T01:20:52;99709.75;;;6.12;100.00
31911;BME280;18457;52.432;16.914;2023-01-10T01:23:21;99712.04;;;6.04;100.00
31911;BME280;18457;52.432;16.914;2023-01-10T01:25:51;99715.56;;;5.97;100.00
31911;BME280;18457;52.432;16.914;2023-01-10T01:28:20;99722.22;;;6.06;100.00
31911;BME280;18457;52.432;16.914;2023-01-10T01:30:49;99724.64;;;6.12;100.00
31911;BME280;18457;52.432;16.914;2023-01-10T01:33:18;99723.29;;;6.17;100.00
31911;BME280;18457;52.432;16.914;2023-01-10T01:35:47;99728.12;;;6.18;100.00
31911;BME280;18457;52.432;16.914;2023-01-10T01:38:17;99733.00;;;6.06;100.00
31911;BME280;18457;52.432;16.914;2023-01-10T01:40:45;99734.86;;;6.12;100.00
31911;BME280;18457;52.432;16.914;2023-01-10T01:43:22;99739.05;;;6.19;100.00
31911;BME280;18457;52.432;16.914;2023-01-10T01:45:52;99740.11;;;6.19;100.00
31911;BME280;18457;52.432;16.914;2023-01-10T01:48:31;99741.41;;;6.18;100.00
31911;BME280;18457;52.432;16.914;2023-01-10T01:51:07;99743.55;;;6.18;100.00
31911;BME280;18457;52.432;16.914;2023-01-10T01:53:43;99741.54;;;6.10;100.00
31911;BME280;18457;52.432;16.914;2023-01-10T01:56:17;99746.34;;;6.11;100.00
31911;BME280;18457;52.432;16.914;2023-01-10T01:58:51;99747.60;;;6.12;100.00
31911;BME280;18457;52.432;16.914;2023-01-10T02:01:22;99749.33;;;6.05;100.00
31911;BME280;18457;52.432;16.914;2023-01-10T02:03:55;99756.48;;;5.95;100.00
31911;BME280;18457;52.432;16.914;2023-01-10T02:06:26;99753.18;;;5.88;100.00
31911;BME280;18457;52.432;16.914;2023-01-10T02:09:02;99753.04;;;5.96;100.00
31911;BME280;18457;52.432;16.914;2023-01-10T02:11:32;99758.04;;;5.97;100.00
31911;BME280;18457;52.432;16.914;2023-01-10T02:14:03;99762.84;;;6.00;100.00
31911;BME280;18457;52.432;16.914;2023-01-10T02:16:32;99764.89;;;6.07;100.00
31911;BME280;18457;52.432;16.914;2023-01-10T02:19:01;99766.79;;;6.11;100.00
31911;BME280;18457;52.432;16.914;2023-01-10T02:21:53;99769.11;;;6.12;100.00
31911;BME280;18457;52.432;16.914;2023-01-10T02:27:42;99770.14;;;6.03;100.00
31911;BME280;18457;52.432;16.914;2023-01-10T02:30:36;99772.59;;;6.07;100.00
31911;BME280;18457;52.432;16.914;2023-01-10T02:33:16;99778.46;;;6.10;100.00
31911;BME280;18457;52.432;16.914;2023-01-10T02:35:59;99777.80;;;6.07;100.00
31911;BME280;18457;52.432;16.914;2023-01-10T02:38:43;99775.73;;;6.02;100.00
31911;BME280;18457;52.432;16.914;2023-01-10T02:41:23;99776.16;;;5.97;100.00
31911;BME280;18457;52.432;16.914;2023-01-10T02:43:58;99780.05;;;6.00;100.00
31911;BME280;18457;52.432;16.914;2023-01-10T02:46:31;99780.95;;;6.00;100.00
31911;BME280;18457;52.432;16.914;2023-01-10T02:49:01;99777.92;;;5.86;100.00
31911;BME280;18457;52.432;16.914;2023-01-10T02:51:30;99786.33;;;5.74;100.00
31911;BME280;18457;52.432;16.914;2023-01-10T02:54:02;99786.84;;;5.64;100.00
31911;BME280;18457;52.432;16.914;2023-01-10T03:02:35;99795.69;;;5.60;100.00
31911;BME280;18457;52.432;16.914;2023-01-10T03:05:14;99796.06;;;5.57;100.00
31911;BME280;18457;52.432;16.914;2023-01-10T03:07:54;99800.16;;;5.46;100.00
31911;BME280;18457;52.432;16.914;2023-01-10T03:10:29;99800.68;;;5.47;100.00
31911;BME280;18457;52.432;16.914;2023-01-10T03:13:03;99798.12;;;5.52;100.00
31911;BME280;18457;52.432;16.914;2023-01-10T03:15:36;99809.34;;;5.44;100.00
31911;BME280;18457;52.432;16.914;2023-01-10T03:18:10;99810.52;;;5.36;100.00
31911;BME280;18457;52.432;16.914;2023-01-10T03:20:42;99813.53;;;5.38;100.00
31911;BME280;18457;52.432;16.914;2023-01-10T03:23:13;99814.92;;;5.40;100.00
31911;BME280;18457;52.432;16.914;2023-01-10T03:25:44;99820.91;;;5.48;100.00
31911;BME280;18457;52.432;16.914;2023-01-10T03:28:16;99828.39;;;5.51;100.00
31911;BME280;18457;52.432;16.914;2023-01-10T03:30:46;99829.36;;;5.59;100.00
31911;BME280;18457;52.432;16.914;2023-01-10T03:33:19;99838.14;;;5.46;100.00
31911;BME280;18457;52.432;16.914;2023-01-10T03:36:05;99841.94;;;5.57;100.00
31911;BME280;18457;52.432;16.914;2023-01-10T03:38:43;99841.45;;;5.66;100.00
31911;BME280;18457;52.432;16.914;2023-01-10T03:41:18;99847.77;;;5.63;100.00
31911;BME280;18457;52.432;16.914;2023-01-10T03:43:54;99849.49;;;5.55;100.00
31911;BME280;18457;52.432;16.914;2023-01-10T03:46:48;99853.15;;;5.48;100.00
31911;BME280;18457;52.432;16.914;2023-01-10T03:49:20;99854.31;;;5.55;100.00
31911;BME280;18457;52.432;16.914;2023-01-10T03:51:50;99861.20;;;5.49;100.00
31911;BME280;18457;52.432;16.914;2023-01-10T03:54:20;99865.98;;;5.40;100.00
31911;BME280;18457;52.432;16.914;2023-01-10T03:56:50;99869.85;;;5.46;100.00
31911;BME280;18457;52.432;16.914;2023-01-10T03:59:21;99873.32;;;5.40;100.00
31911;BME280;18457;52.432;16.914;2023-01-10T04:01:50;99871.43;;;5.47;100.00
31911;BME280;18457;52.432;16.914;2023-01-10T04:04:19;99874.48;;;5.47;100.00
31911;BME280;18457;52.432;16.914;2023-01-10T04:06:48;99879.31;;;5.47;100.00
31911;BME280;18457;52.432;16.914;2023-01-10T04:09:17;99883.89;;;5.40;100.00
31911;BME280;18457;52.432;16.914;2023-01-10T04:11:45;99886.36;;;5.42;100.00
31911;BME280;18457;52.432;16.914;2023-01-10T04:14:14;99892.08;;;5.43;100.00
31911;BME280;18457;52.432;16.914;2023-01-10T04:16:42;99901.77;;;5.41;100.00
31911;BME280;18457;52.432;16.914;2023-01-10T04:19:11;99905.86;;;5.45;100.00
31911;BME280;18457;52.432;16.914;2023-01-10T04:21:39;99914.71;;;5.38;100.00
31911;BME280;18457;52.432;16.914;2023-01-10T04:24:08;99917.66;;;5.29;100.00
31911;BME280;18457;52.432;16.914;2023-01-10T04:26:36;99923.07;;;5.26;100.00
31911;BME280;18457;52.432;16.914;2023-01-10T04:29:05;99930.53;;;5.32;100.00
31911;BME280;18457;52.432;16.914;2023-01-10T04:31:34;99935.59;;;5.28;100.00
31911;BME280;18457;52.432;16.914;2023-01-10T04:34:02;99940.70;;;5.18;100.00
31911;BME280;18457;52.432;16.914;2023-01-10T04:36:31;99943.27;;;5.29;100.00
31911;BME280;18457;52.432;16.914;2023-01-10T04:38:59;99946.52;;;5.26;100.00
31911;BME280;18457;52.432;16.914;2023-01-10T04:41:28;99952.77;;;5.29;100.00
31911;BME280;18457;52.432;16.914;2023-01-10T04:43:56;99955.95;;;5.33;100.00
31911;BME280;18457;52.432;16.914;2023-01-10T04:46:25;99962.75;;;5.34;100.00
31911;BME280;18457;52.432;16.914;2023-01-10T04:48:53;99971.02;;;5.31;100.00
31911;BME280;18457;52.432;16.914;2023-01-10T04:51:22;99977.63;;;5.32;100.00
31911;BME280;18457;52.432;16.914;2023-01-10T04:53:51;99976.77;;;5.29;100.00
31911;BME280;18457;52.432;16.914;2023-01-10T04:56:21;99976.61;;;5.26;100.00
31911;BME280;18457;52.432;16.914;2023-01-10T04:58:50;99983.92;;;5.29;100.00
31911;BME280;18457;52.432;16.914;2023-01-10T05:01:23;99990.84;;;5.36;100.00
31911;BME280;18457;52.432;16.914;2023-01-10T05:03:53;99993.49;;;5.39;100.00
31911;BME280;18457;52.432;16.914;2023-01-10T05:06:22;100002.36;;;5.30;100.00
31911;BME280;18457;52.432;16.914;2023-01-10T05:08:51;100006.83;;;5.32;100.00
31911;BME280;18457;52.432;16.914;2023-01-10T05:11:20;100009.87;;;5.32;100.00
31911;BME280;18457;52.432;16.914;2023-01-10T05:13:49;100011.46;;;5.34;100.00
31911;BME280;18457;52.432;16.914;2023-01-10T05:16:17;100008.73;;;5.38;100.00
31911;BME280;18457;52.432;16.914;2023-01-10T05:18:46;100013.73;;;5.40;100.00
31911;BME280;18457;52.432;16.914;2023-01-10T05:21:15;100013.65;;;5.31;100.00
31911;BME280;18457;52.432;16.914;2023-01-10T05:23:43;100018.17;;;5.23;100.00
31911;BME280;18457;52.432;16.914;2023-01-10T05:26:14;100022.93;;;5.32;100.00
31911;BME280;18457;52.432;16.914;2023-01-10T05:28:44;100030.09;;;5.34;100.00
31911;BME280;18457;52.432;16.914;2023-01-10T05:31:14;100038.77;;;5.44;100.00
31911;BME280;18457;52.432;16.914;2023-01-10T05:33:45;100044.98;;;5.49;100.00
31911;BME280;18457;52.432;16.914;2023-01-10T05:36:14;100041.80;;;5.45;100.00
31911;BME280;18457;52.432;16.914;2023-01-10T05:38:42;100042.50;;;5.47;100.00
31911;BME280;18457;52.432;16.914;2023-01-10T05:41:10;100054.35;;;5.44;100.00
31911;BME280;18457;52.432;16.914;2023-01-10T05:43:39;100059.71;;;5.46;100.00
31911;BME280;18457;52.432;16.914;2023-01-10T05:46:08;100069.90;;;5.47;100.00
31911;BME280;18457;52.432;16.914;2023-01-10T05:48:37;100076.61;;;5.38;100.00
31911;BME280;18457;52.432;16.914;2023-01-10T05:51:06;100084.51;;;5.34;100.00
31911;BME280;18457;52.432;16.914;2023-01-10T05:53:34;100085.77;;;5.36;100.00
31911;BME280;18457;52.432;16.914;2023-01-10T05:56:03;100090.73;;;5.41;100.00
31911;BME280;18457;52.432;16.914;2023-01-10T05:58:32;100095.81;;;5.34;100.00
31911;BME280;18457;52.432;16.914;2023-01-10T06:01:00;100102.58;;;5.38;100.00
31911;BME280;18457;52.432;16.914;2023-01-10T06:03:29;100108.33;;;5.36;100.00
31911;BME280;18457;52.432;16.914;2023-01-10T06:05:57;100111.94;;;5.33;100.00
31911;BME280;18457;52.432;16.914;2023-01-10T06:08:26;100126.42;;;5.34;100.00
31911;BME280;18457;52.432;16.914;2023-01-10T06:10:54;100128.40;;;5.33;100.00
31911;BME280;18457;52.432;16.914;2023-01-10T06:13:23;100138.95;;;5.37;100.00
31911;BME280;18457;52.432;16.914;2023-01-10T06:15:52;100145.21;;;5.38;100.00
31911;BME280;18457;52.432;16.914;2023-01-10T06:18:20;100144.86;;;5.36;100.00
31911;BME280;18457;52.432;16.914;2023-01-10T06:20:49;100151.55;;;5.29;100.00
31911;BME280;18457;52.432;16.914;2023-01-10T06:23:17;100152.61;;;5.29;100.00
31911;BME280;18457;52.432;16.914;2023-01-10T06:25:46;100157.11;;;5.24;100.00
31911;BME280;18457;52.432;16.914;2023-01-10T06:28:15;100163.36;;;5.29;100.00
31911;BME280;18457;52.432;16.914;2023-01-10T06:30:43;100166.02;;;5.34;100.00
31911;BME280;18457;52.432;16.914;2023-01-10T06:33:12;100167.27;;;5.35;100.00
31911;BME280;18457;52.432;16.914;2023-01-10T06:35:41;100174.34;;;5.46;100.00
31911;BME280;18457;52.432;16.914;2023-01-10T06:38:10;100175.17;;;5.56;100.00
31911;BME280;18457;52.432;16.914;2023-01-10T06:40:38;100179.27;;;5.60;100.00
31911;BME280;18457;52.432;16.914;2023-01-10T06:43:07;100185.05;;;5.52;100.00
31911;BME280;18457;52.432;16.914;2023-01-10T06:45:35;100187.05;;;5.48;100.00
31911;BME280;18457;52.432;16.914;2023-01-10T06:48:05;100194.02;;;5.51;100.00
31911;BME280;18457;52.432;16.914;2023-01-10T06:50:33;100192.83;;;5.42;100.00
31911;BME280;18457;52.432;16.914;2023-01-10T06:53:03;100196.33;;;5.53;100.00
31911;BME280;18457;52.432;16.914;2023-01-10T06:55:31;100199.78;;;5.47;100.00
31911;BME280;18457;52.432;16.914;2023-01-10T06:58:01;100204.73;;;5.54;100.00
31911;BME280;18457;52.432;16.914;2023-01-10T07:00:31;100209.38;;;5.58;100.00
31911;BME280;18457;52.432;16.914;2023-01-10T07:03:01;100208.80;;;5.64;100.00
31911;BME280;18457;52.432;16.914;2023-01-10T07:05:29;100215.85;;;5.55;100.00
31911;BME280;18457;52.432;16.914;2023-01-10T07:07:58;100215.66;;;5.55;100.00
31911;BME280;18457;52.432;16.914;2023-01-10T07:10:28;100217.20;;;5.65;100.00
31911;BME280;18457;52.432;16.914;2023-01-10T07:12:57;100222.48;;;5.78;100.00
31911;BME280;18457;52.432;16.914;2023-01-10T07:15:26;100231.09;;;5.77;100.00
31911;BME280;18457;52.432;16.914;2023-01-10T07:17:56;100232.95;;;5.69;100.00
31911;BME280;18457;52.432;16.914;2023-01-10T07:20:26;100235.98;;;5.69;100.00
31911;BME280;18457;52.432;16.914;2023-01-10T07:22:54;100243.23;;;5.59;100.00
31911;BME280;18457;52.432;16.914;2023-01-10T07:25:24;100248.54;;;5.68;100.00
31911;BME280;18457;52.432;16.914;2023-01-10T07:27:53;100253.56;;;5.68;100.00
31911;BME280;18457;52.432;16.914;2023-01-10T07:30:23;100260.05;;;5.63;100.00
31911;BME280;18457;52.432;16.914;2023-01-10T07:32:54;100264.68;;;5.66;100.00
31911;BME280;18457;52.432;16.914;2023-01-10T07:35:23;100261.80;;;5.67;100.00
31911;BME280;18457;52.432;16.914;2023-01-10T07:37:52;100268.47;;;5.62;100.00
31911;BME280;18457;52.432;16.914;2023-01-10T07:40:20;100269.29;;;5.74;100.00
31911;BME280;18457;52.432;16.914;2023-01-10T07:42:49;100270.88;;;5.82;100.00
31911;BME280;18457;52.432;16.914;2023-01-10T07:45:17;100271.58;;;5.79;100.00
31911;BME280;18457;52.432;16.914;2023-01-10T07:47:48;100274.07;;;5.87;100.00
31911;BME280;18457;52.432;16.914;2023-01-10T07:50:16;100280.70;;;5.86;100.00
31911;BME280;18457;52.432;16.914;2023-01-10T07:52:45;100286.50;;;5.75;100.00
31911;BME280;18457;52.432;16.914;2023-01-10T07:55:14;100283.03;;;5.85;100.00
31911;BME280;18457;52.432;16.914;2023-01-10T07:57:43;100288.59;;;5.84;100.00
31911;BME280;18457;52.432;16.914;2023-01-10T08:00:14;100296.48;;;5.85;100.00
31911;BME280;18457;52.432;16.914;2023-01-10T08:02:47;100301.88;;;5.80;100.00
31911;BME280;18457;52.432;16.914;2023-01-10T08:05:16;100308.65;;;5.89;100.00
31911;BME280;18457;52.432;16.914;2023-01-10T08:07:45;100314.40;;;5.86;100.00
31911;BME280;18457;52.432;16.914;2023-01-10T08:10:13;100317.59;;;5.92;100.00
31911;BME280;18457;52.432;16.914;2023-01-10T08:12:42;100319.77;;;5.91;100.00
31911;BME280;18457;52.432;16.914;2023-01-10T08:15:11;100321.55;;;5.87;100.00
31911;BME280;18457;52.432;16.914;2023-01-10T08:17:40;100325.52;;;5.83;100.00
31911;BME280;18457;52.432;16.914;2023-01-10T08:20:11;100330.55;;;5.80;100.00
31911;BME280;18457;52.432;16.914;2023-01-10T08:23:00;100331.29;;;5.75;100.00
31911;BME280;18457;52.432;16.914;2023-01-10T08:25:29;100331.26;;;5.83;100.00
31911;BME280;18457;52.432;16.914;2023-01-10T08:27:57;100333.38;;;5.85;100.00
31911;BME280;18457;52.432;16.914;2023-01-10T08:30:25;100340.77;;;5.83;100.00
31911;BME280;18457;52.432;16.914;2023-01-10T08:32:54;100343.08;;;5.89;100.00
31911;BME280;18457;52.432;16.914;2023-01-10T08:35:22;100346.82;;;5.91;100.00
31911;BME280;18457;52.432;16.914;2023-01-10T08:37:51;100346.27;;;5.92;100.00
31911;BME280;18457;52.432;16.914;2023-01-10T08:40:20;100350.40;;;5.91;100.00
31911;BME280;18457;52.432;16.914;2023-01-10T08:42:51;100356.67;;;5.92;100.00
31911;BME280;18457;52.432;16.914;2023-01-10T08:45:23;100355.20;;;5.97;100.00
31911;BME280;18457;52.432;16.914;2023-01-10T08:47:52;100355.88;;;6.05;100.00
31911;BME280;18457;52.432;16.914;2023-01-10T08:50:21;100361.70;;;5.92;100.00
31911;BME280;18457;52.432;16.914;2023-01-10T08:52:50;100370.63;;;5.97;100.00
31911;BME280;18457;52.432;16.914;2023-01-10T08:55:19;100376.19;;;5.96;100.00
31911;BME280;18457;52.432;16.914;2023-01-10T08:57:48;100380.45;;;6.03;100.00
31911;BME280;18457;52.432;16.914;2023-01-10T09:00:18;100382.42;;;6.04;100.00
31911;BME280;18457;52.432;16.914;2023-01-10T09:02:46;100384.70;;;6.13;100.00
31911;BME280;18457;52.432;16.914;2023-01-10T09:05:15;100388.64;;;6.13;100.00
31911;BME280;18457;52.432;16.914;2023-01-10T09:07:58;100390.86;;;6.00;100.00
31911;BME280;18457;52.432;16.914;2023-01-10T09:10:28;100398.02;;;6.02;100.00
31911;BME280;18457;52.432;16.914;2023-01-10T09:12:58;100396.09;;;5.96;100.00
31911;BME280;18457;52.432;16.914;2023-01-10T09:15:30;100403.98;;;5.93;100.00
31911;BME280;18457;52.432;16.914;2023-01-10T09:18:00;100406.46;;;5.98;100.00
31911;BME280;18457;52.432;16.914;2023-01-10T09:20:29;100405.94;;;5.97;100.00
31911;BME280;18457;52.432;16.914;2023-01-10T09:22:58;100411.84;;;6.01;100.00
31911;BME280;18457;52.432;16.914;2023-01-10T09:25:27;100423.11;;;6.08;100.00
31911;BME280;18457;52.432;16.914;2023-01-10T09:27:57;100427.50;;;6.21;100.00
31911;BME280;18457;52.432;16.914;2023-01-10T09:30:27;100430.78;;;6.16;100.00
31911;BME280;18457;52.432;16.914;2023-01-10T09:32:56;100436.48;;;6.18;100.00
31911;BME280;18457;52.432;16.914;2023-01-10T09:35:26;100438.63;;;6.20;100.00
31911;BME280;18457;52.432;16.914;2023-01-10T09:37:55;100440.02;;;6.27;100.00
31911;BME280;18457;52.432;16.914;2023-01-10T09:40:32;100436.60;;;6.30;100.00
31911;BME280;18457;52.432;16.914;2023-01-10T09:43:12;100440.05;;;6.21;100.00
31911;BME280;18457;52.432;16.914;2023-01-10T09:45:51;100445.14;;;6.10;100.00
31911;BME280;18457;52.432;16.914;2023-01-10T09:48:29;100447.10;;;6.15;100.00
31911;BME280;18457;52.432;16.914;2023-01-10T09:51:14;100445.94;;;6.28;100.00
31911;BME280;18457;52.432;16.914;2023-01-10T09:53:48;100448.98;;;6.27;100.00
31911;BME280;18457;52.432;16.914;2023-01-10T09:56:23;100446.30;;;6.29;100.00
31911;BME280;18457;52.432;16.914;2023-01-10T09:58:52;100445.39;;;6.30;100.00
31911;BME280;18457;52.432;16.914;2023-01-10T10:01:23;100450.58;;;6.32;100.00
31911;BME280;18457;52.432;16.914;2023-01-10T10:03:59;100449.68;;;6.32;100.00
31911;BME280;18457;52.432;16.914;2023-01-10T10:06:30;100449.33;;;6.32;100.00
31911;BME280;18457;52.432;16.914;2023-01-10T10:09:01;100451.51;;;6.27;100.00
31911;BME280;18457;52.432;16.914;2023-01-10T10:14:31;100450.56;;;6.35;100.00
31911;BME280;18457;52.432;16.914;2023-01-10T10:17:14;100451.30;;;6.32;100.00
31911;BME280;18457;52.432;16.914;2023-01-10T10:19:56;100450.98;;;6.26;100.00
31911;BME280;18457;52.432;16.914;2023-01-10T10:22:36;100452.96;;;6.25;100.00
31911;BME280;18457;52.432;16.914;2023-01-10T10:25:33;100457.05;;;6.32;100.00
31911;BME280;18457;52.432;16.914;2023-01-10T10:28:31;100461.73;;;6.26;100.00
31911;BME280;18457;52.432;16.914;2023-01-10T10:31:13;100461.94;;;6.23;100.00
31911;BME280;18457;52.432;16.914;2023-01-10T10:33:53;100467.11;;;6.27;100.00
31911;BME280;18457;52.432;16.914;2023-01-10T10:36:29;100459.20;;;6.31;100.00
31911;BME280;18457;52.432;16.914;2023-01-10T10:39:02;100468.71;;;6.29;100.00
31911;BME280;18457;52.432;16.914;2023-01-10T10:41:35;100467.44;;;6.33;100.00
31911;BME280;18457;52.432;16.914;2023-01-10T10:44:11;100468.89;;;6.31;100.00
31911;BME280;18457;52.432;16.914;2023-01-10T10:46:45;100475.85;;;6.35;100.00
31911;BME280;18457;52.432;16.914;2023-01-10T10:49:19;100476.73;;;6.41;100.00
31911;BME280;18457;52.432;16.914;2023-01-10T10:51:51;100483.31;;;6.49;100.00
31911;BME280;18457;52.432;16.914;2023-01-10T10:54:20;100493.13;;;6.58;100.00
31911;BME280;18457;52.432;16.914;2023-01-10T10:56:49;100492.20;;;6.60;100.00
31911;BME280;18457;52.432;16.914;2023-01-10T10:59:22;100492.77;;;7.01;100.00
31911;BME280;18457;52.432;16.914;2023-01-10T11:01:50;100495.88;;;7.84;100.00
31911;BME280;18457;52.432;16.914;2023-01-10T11:04:22;100498.66;;;8.58;100.00
31911;BME280;18457;52.432;16.914;2023-01-10T11:06:51;100500.46;;;8.37;100.00
31911;BME280;18457;52.432;16.914;2023-01-10T11:09:21;100500.90;;;8.33;100.00
31911;BME280;18457;52.432;16.914;2023-01-10T11:11:53;100504.94;;;9.11;99.77
31911;BME280;18457;52.432;16.914;2023-01-10T11:14:44;100509.04;;;9.43;97.57
31911;BME280;18457;52.432;16.914;2023-01-10T11:17:28;100515.06;;;9.41;94.56
31911;BME280;18457;52.432;16.914;2023-01-10T11:20:05;100520.04;;;9.33;92.45
31911;BME280;18457;52.432;16.914;2023-01-10T11:22:45;100522.39;;;9.54;93.17
31911;BME280;18457;52.432;16.914;2023-01-10T11:25:15;100529.38;;;9.16;92.07
31911;BME280;18457;52.432;16.914;2023-01-10T11:27:46;100530.02;;;8.87;93.69
31911;BME280;18457;52.432;16.914;2023-01-10T11:30:19;100537.39;;;8.63;94.02
31911;BME280;18457;52.432;16.914;2023-01-10T11:32:52;100541.16;;;8.89;95.34
31911;BME280;18457;52.432;16.914;2023-01-10T11:35:25;100548.36;;;8.51;94.09
31911;BME280;18457;52.432;16.914;2023-01-10T11:38:02;100545.64;;;8.08;95.45
31911;BME280;18457;52.432;16.914;2023-01-10T11:40:32;100554.07;;;7.96;97.00
31911;BME280;18457;52.432;16.914;2023-01-10T11:43:24;100557.69;;;7.76;97.25
31911;BME280;18457;52.432;16.914;2023-01-10T11:45:55;100565.20;;;7.80;97.86
31911;BME280;18457;52.432;16.914;2023-01-10T11:48:25;100570.24;;;7.79;98.12
31911;BME280;18457;52.432;16.914;2023-01-10T11:51:23;100570.52;;;7.70;97.17
31911;BME280;18457;52.432;16.914;2023-01-10T11:53:57;100575.27;;;7.63;97.58
31911;BME280;18457;52.432;16.914;2023-01-10T11:56:28;100578.98;;;7.51;97.11
31911;BME280;18457;52.432;16.914;2023-01-10T11:59:06;100581.36;;;7.45;97.85
31911;BME280;18457;52.432;16.914;2023-01-10T12:01:40;100584.66;;;7.35;98.80
31911;BME280;18457;52.432;16.914;2023-01-10T12:04:15;100587.40;;;7.32;99.38
31911;BME280;18457;52.432;16.914;2023-01-10T12:06:44;100587.03;;;7.34;99.77
31911;BME280;18457;52.432;16.914;2023-01-10T12:09:54;100591.75;;;7.27;99.76
31911;BME280;18457;52.432;16.914;2023-01-10T12:12:24;100595.73;;;7.24;100.00
31911;BME280;18457;52.432;16.914;2023-01-10T12:14:55;100594.06;;;7.29;100.00
31911;BME280;18457;52.432;16.914;2023-01-10T12:17:26;100599.28;;;7.30;100.00
31911;BME280;18457;52.432;16.914;2023-01-10T12:19:58;100598.53;;;7.32;100.00
31911;BME280;18457;52.432;16.914;2023-01-10T12:22:31;100605.67;;;7.38;100.00
31911;BME280;18457;52.432;16.914;2023-01-10T12:25:05;100607.27;;;7.41;99.97
31911;BME280;18457;52.432;16.914;2023-01-10T12:27:38;100606.34;;;7.44;99.98
31911;BME280;18457;52.432;16.914;2023-01-10T12:30:13;100611.29;;;7.35;99.89
31911;BME280;18457;52.432;16.914;2023-01-10T12:32:46;100609.49;;;7.32;99.94
31911;BME280;18457;52.432;16.914;2023-01-10T12:35:21;100608.58;;;7.35;99.99
31911;BME280;18457;52.432;16.914;2023-01-10T12:37:56;100607.98;;;7.42;99.69
31911;BME280;18457;52.432;16.914;2023-01-10T12:40:36;100608.86;;;7.44;98.86
31911;BME280;18457;52.432;16.914;2023-01-10T12:43:12;100612.05;;;7.50;98.27
31911;BME280;18457;52.432;16.914;2023-01-10T12:46:08;100614.03;;;7.49;97.88
31911;BME280;18457;52.432;16.914;2023-01-10T12:49:02;100614.05;;;7.48;97.89
31911;BME280;18457;52.432;16.914;2023-01-10T12:51:35;100616.97;;;7.43;97.43
31911;BME280;18457;52.432;16.914;2023-01-10T12:54:10;100614.06;;;7.45;97.61
31911;BME280;18457;52.432;16.914;2023-01-10T12:56:41;100615.69;;;7.46;97.71
31911;BME280;18457;52.432;16.914;2023-01-10T12:59:16;100616.08;;;7.40;97.36
31911;BME280;18457;52.432;16.914;2023-01-10T13:02:06;100610.23;;;7.51;97.29
31911;BME280;18457;52.432;16.914;2023-01-10T13:04:42;100616.48;;;7.57;96.32
31911;BME280;18457;52.432;16.914;2023-01-10T13:07:15;100620.08;;;7.58;95.93
31911;BME280;18457;52.432;16.914;2023-01-10T13:09:45;100618.45;;;7.60;95.34
31911;BME280;18457;52.432;16.914;2023-01-10T13:12:17;100622.03;;;7.60;95.28
31911;BME280;18457;52.432;16.914;2023-01-10T13:14:53;100627.08;;;7.60;95.43
31911;BME280;18457;52.432;16.914;2023-01-10T13:17:32;100633.02;;;7.56;94.18
31911;BME280;18457;52.432;16.914;2023-01-10T13:20:29;100637.89;;;7.55;92.35
31911;BME280;18457;52.432;16.914;2023-01-10T13:23:18;100639.72;;;7.51;90.99